createdAt,value
2022-08-28T00:01:01.841Z,7.68
2022-08-28T00:03:30.652Z,6.40
2022-08-28T00:06:00.509Z,7.30
2022-08-28T00:08:30.735Z,6.50
2022-08-28T00:10:59.500Z,5.38
2022-08-28T00:13:31.508Z,6.10
2022-08-28T00:16:01.279Z,5.75
2022-08-28T00:18:34.026Z,5.40
2022-08-28T00:21:02.471Z,5.60
2022-08-28T00:23:42.585Z,6.15
2022-08-28T00:26:34.757Z,6.28
2022-08-28T00:29:05.486Z,5.82
2022-08-28T00:31:38.554Z,5.72
2022-08-28T00:34:08.266Z,5.50
2022-08-28T00:36:38.664Z,5.22
2022-08-28T00:39:07.781Z,5.75
2022-08-28T00:41:41.146Z,5.20
2022-08-28T00:44:25.958Z,5.75
2022-08-28T00:46:56.529Z,5.95
2022-08-28T00:49:32.629Z,5.40
2022-08-28T00:52:05.883Z,6.03
2022-08-28T00:54:38.973Z,5.20
2022-08-28T00:59:45.908Z,5.50
2022-08-28T01:02:16.579Z,5.20
2022-08-28T01:04:47.083Z,5.25
2022-08-28T01:07:17.398Z,5.15
2022-08-28T01:09:49.340Z,5.30
2022-08-28T01:12:23.622Z,5.10
2022-08-28T01:14:55.469Z,4.72
2022-08-28T01:17:26.498Z,6.00
2022-08-28T01:19:58.485Z,4.80
2022-08-28T01:22:34.697Z,5.32
2022-08-28T01:25:06.669Z,5.05
2022-08-28T01:27:35.499Z,5.25
2022-08-28T01:30:04.978Z,4.82
2022-08-28T01:32:45.700Z,5.40
2022-08-28T01:35:19.129Z,5.35
2022-08-28T01:37:48.430Z,5.45
2022-08-28T01:40:24.923Z,4.95
2022-08-28T01:42:55.758Z,5.18
2022-08-28T01:45:25.578Z,4.93
2022-08-28T01:47:57.204Z,5.18
2022-08-28T01:50:25.431Z,4.78
2022-08-28T01:52:54.211Z,4.55
2022-08-28T01:55:23.017Z,4.90
2022-08-28T01:57:53.939Z,4.90
2022-08-28T02:00:27.746Z,4.40
2022-08-28T02:03:07.016Z,4.80
2022-08-28T02:05:40.011Z,4.93
2022-08-28T02:08:08.997Z,4.70
2022-08-28T02:10:39.827Z,5.43
2022-08-28T02:13:08.890Z,5.20
2022-08-28T02:15:38.312Z,4.88
2022-08-28T02:18:06.905Z,5.10
2022-08-28T02:20:36.522Z,7.40
2022-08-28T02:23:07.171Z,7.47
2022-08-28T02:25:35.354Z,6.15
2022-08-28T02:28:04.103Z,5.88
2022-08-28T02:30:36.290Z,5.38
2022-08-28T02:33:05.876Z,5.35
2022-08-28T02:35:34.162Z,5.38
2022-08-28T02:38:03.889Z,6.03
2022-08-28T02:40:32.029Z,6.32
2022-08-28T02:43:01.189Z,5.60
2022-08-28T02:45:37.515Z,5.50
2022-08-28T02:48:14.629Z,6.07
2022-08-28T02:50:49.196Z,6.32
2022-08-28T02:53:18.120Z,5.97
2022-08-28T02:55:49.485Z,6.22
2022-08-28T02:58:17.913Z,5.28
2022-08-28T03:00:49.977Z,5.60
2022-08-28T03:03:18.413Z,5.95
2022-08-28T03:05:48.202Z,5.30
2022-08-28T03:08:17.759Z,7.68
2022-08-28T03:10:45.947Z,9.63
2022-08-28T03:13:26.524Z,6.82
2022-08-28T03:15:56.495Z,5.70
2022-08-28T03:18:27.177Z,5.60
2022-08-28T03:20:56.269Z,5.65
2022-08-28T03:23:29.126Z,5.40
2022-08-28T03:26:02.456Z,5.47
2022-08-28T03:28:38.317Z,5.55
2022-08-28T03:31:09.730Z,6.40
2022-08-28T03:33:42.795Z,7.03
2022-08-28T03:36:15.652Z,6.88
2022-08-28T03:38:45.320Z,6.53
2022-08-28T03:41:19.251Z,6.43
2022-08-28T03:43:49.017Z,5.95
2022-08-28T03:46:20.818Z,6.88
2022-08-28T03:48:50.457Z,7.55
2022-08-28T03:51:29.290Z,11.60
2022-08-28T03:54:00.491Z,8.13
2022-08-28T03:56:30.365Z,8.00
2022-08-28T03:59:02.402Z,8.73
2022-08-28T04:01:31.145Z,7.97
2022-08-28T04:03:59.419Z,8.07
2022-08-28T04:06:28.151Z,9.15
2022-08-28T04:08:59.906Z,7.70
2022-08-28T04:11:30.085Z,7.35
2022-08-28T04:13:58.616Z,6.65
2022-08-28T04:16:28.036Z,6.22
2022-08-28T04:18:57.972Z,6.00
2022-08-28T04:21:28.206Z,5.88
2022-08-28T04:23:57.044Z,6.03
2022-08-28T04:26:28.024Z,7.93
2022-08-28T04:28:56.802Z,6.90
2022-08-28T04:31:31.694Z,5.38
2022-08-28T04:34:05.178Z,6.70
2022-08-28T04:36:33.899Z,6.35
2022-08-28T04:39:05.882Z,7.13
2022-08-28T04:41:39.266Z,6.13
2022-08-28T04:44:10.939Z,6.50
2022-08-28T04:46:39.323Z,6.38
2022-08-28T04:49:12.271Z,6.40
2022-08-28T04:51:42.239Z,6.38
2022-08-28T04:54:13.475Z,6.45
2022-08-28T04:56:44.998Z,5.80
2022-08-28T04:59:13.369Z,6.20
2022-08-28T05:01:43.154Z,6.22
2022-08-28T05:04:12.401Z,5.88
2022-08-28T05:06:47.288Z,6.03
2022-08-28T05:09:19.338Z,5.53
2022-08-28T05:11:48.835Z,5.18
2022-08-28T05:14:17.644Z,4.97
2022-08-28T05:16:49.994Z,4.70
2022-08-28T05:19:23.520Z,5.82
2022-08-28T05:21:58.178Z,4.50
2022-08-28T05:24:26.669Z,5.20
2022-08-28T05:26:55.572Z,5.65
2022-08-28T05:29:25.855Z,4.43
2022-08-28T05:31:55.539Z,5.00
2022-08-28T05:34:24.826Z,4.55
2022-08-28T05:36:53.205Z,4.05
2022-08-28T05:39:26.123Z,4.53
2022-08-28T05:41:54.706Z,4.43
2022-08-28T05:44:23.293Z,6.15
2022-08-28T05:46:52.362Z,4.55
2022-08-28T05:49:20.870Z,4.50
2022-08-28T05:51:52.518Z,3.95
2022-08-28T05:54:21.139Z,4.63
2022-08-28T05:56:49.645Z,5.18
2022-08-28T05:59:19.099Z,5.28
2022-08-28T06:01:51.583Z,4.65
2022-08-28T06:04:25.756Z,4.78
2022-08-28T06:06:54.767Z,4.32
2022-08-28T06:09:29.452Z,5.13
2022-08-28T06:12:05.331Z,3.80
2022-08-28T06:14:36.173Z,4.60
2022-08-28T06:17:07.847Z,4.13
2022-08-28T06:19:41.521Z,4.30
2022-08-28T06:22:15.850Z,4.68
2022-08-28T06:24:54.635Z,4.25
2022-08-28T06:27:33.093Z,4.50
2022-08-28T06:30:04.162Z,3.90
2022-08-28T06:32:37.723Z,4.30
2022-08-28T06:35:14.462Z,4.82
2022-08-28T06:37:43.672Z,3.85
2022-08-28T06:40:20.064Z,4.43
2022-08-28T06:42:50.509Z,5.45
2022-08-28T06:45:45.840Z,5.15
2022-08-28T06:48:19.790Z,3.97
2022-08-28T06:50:50.379Z,4.03
2022-08-28T06:53:24.269Z,4.57
2022-08-28T06:56:07.742Z,4.10
2022-08-28T06:58:41.867Z,4.10
2022-08-28T07:01:23.204Z,3.95
2022-08-28T07:03:55.008Z,4.45
2022-08-28T07:06:31.894Z,3.50
2022-08-28T07:09:05.260Z,4.10
2022-08-28T07:11:37.889Z,4.25
2022-08-28T07:14:07.557Z,4.30
2022-08-28T07:16:39.503Z,4.20
2022-08-28T07:19:13.268Z,3.90
2022-08-28T07:21:46.664Z,5.53
2022-08-28T07:24:16.666Z,3.42
2022-08-28T07:26:58.586Z,4.97
2022-08-28T07:29:27.138Z,3.95
2022-08-28T07:31:59.218Z,3.35
2022-08-28T07:34:33.561Z,3.67
2022-08-28T07:37:15.131Z,4.07
2022-08-28T07:39:44.765Z,7.05
2022-08-28T07:42:35.769Z,4.65
2022-08-28T07:45:05.122Z,4.53
2022-08-28T07:47:33.554Z,4.93
2022-08-28T07:50:02.907Z,4.25
2022-08-28T07:52:32.573Z,5.22
2022-08-28T07:55:01.525Z,5.65
2022-08-28T07:57:32.231Z,3.30
2022-08-28T08:00:08.965Z,4.13
2022-08-28T08:02:43.697Z,5.13
2022-08-28T08:05:11.803Z,3.92
2022-08-28T08:07:47.419Z,3.50
2022-08-28T08:10:19.892Z,3.45
2022-08-28T08:12:50.967Z,3.70
2022-08-28T08:15:21.115Z,3.95
2022-08-28T08:17:49.282Z,3.50
2022-08-28T08:20:17.948Z,3.55
2022-08-28T08:22:55.851Z,3.40
2022-08-28T08:25:27.965Z,4.25
2022-08-28T08:27:59.711Z,5.70
2022-08-28T08:30:29.234Z,3.70
2022-08-28T08:32:57.726Z,3.83
2022-08-28T08:35:27.419Z,5.00
2022-08-28T08:37:55.611Z,4.30
2022-08-28T08:40:26.914Z,3.40
2022-08-28T08:43:01.386Z,7.75
2022-08-28T08:45:32.188Z,3.30
2022-08-28T08:48:03.331Z,3.05
2022-08-28T08:50:35.720Z,3.70
2022-08-28T08:53:24.358Z,3.92
2022-08-28T08:55:56.383Z,3.70
2022-08-28T08:58:29.875Z,3.70
2022-08-28T09:01:28.495Z,4.00
2022-08-28T09:04:22.532Z,3.53
2022-08-28T09:07:16.061Z,3.60
2022-08-28T09:09:54.421Z,3.50
2022-08-28T09:12:26.207Z,3.70
2022-08-28T09:15:09.949Z,3.28
2022-08-28T09:17:49.785Z,5.35
2022-08-28T09:20:25.910Z,6.50
2022-08-28T09:23:01.961Z,3.60
2022-08-28T09:25:51.634Z,3.90
2022-08-28T09:28:41.255Z,3.70
2022-08-28T09:31:16.273Z,4.15
2022-08-28T09:33:56.148Z,4.55
2022-08-28T09:36:38.215Z,5.60
2022-08-28T09:39:38.180Z,4.30
2022-08-28T09:42:34.016Z,5.88
2022-08-28T09:45:27.052Z,6.88
2022-08-28T09:47:58.640Z,5.00
2022-08-28T09:50:43.783Z,21.77
2022-08-28T09:53:13.286Z,3.95
2022-08-28T09:56:15.558Z,4.03
2022-08-28T09:58:51.102Z,3.20
2022-08-28T10:01:47.070Z,4.47
2022-08-28T10:04:40.059Z,4.90
2022-08-28T10:07:12.381Z,4.28
2022-08-28T10:09:52.705Z,4.38
2022-08-28T10:12:40.714Z,4.43
2022-08-28T10:15:10.191Z,4.63
2022-08-28T10:17:57.367Z,4.53
2022-08-28T10:20:58.773Z,5.13
2022-08-28T10:23:46.235Z,3.88
2022-08-28T10:26:35.173Z,5.40
2022-08-28T10:29:10.947Z,3.72
2022-08-28T10:32:10.949Z,4.22
2022-08-28T10:35:12.566Z,4.15
2022-08-28T10:38:17.099Z,3.85
2022-08-28T10:41:23.446Z,5.18
2022-08-28T10:43:57.338Z,4.05
2022-08-28T10:46:50.959Z,3.72
2022-08-28T10:49:41.766Z,3.33
2022-08-28T10:52:21.054Z,3.83
2022-08-28T10:54:57.096Z,3.97
2022-08-28T10:57:43.301Z,3.65
2022-08-28T11:00:17.040Z,4.25
2022-08-28T11:02:50.507Z,4.95
2022-08-28T11:05:25.122Z,3.78
2022-08-28T11:08:02.264Z,6.85
2022-08-28T11:10:33.890Z,4.28
2022-08-28T11:13:08.595Z,3.75
2022-08-28T11:15:54.971Z,4.18
2022-08-28T11:18:41.681Z,6.00
2022-08-28T11:21:26.621Z,5.43
2022-08-28T11:24:07.888Z,4.93
2022-08-28T11:26:50.062Z,4.25
2022-08-28T11:29:57.138Z,4.03
2022-08-28T11:32:37.782Z,3.85
2022-08-28T11:35:25.463Z,4.38
2022-08-28T11:37:56.427Z,3.60
2022-08-28T11:41:03.557Z,5.85
2022-08-28T11:43:35.829Z,4.10
2022-08-28T11:46:05.245Z,4.18
2022-08-28T11:48:36.206Z,3.60
2022-08-28T11:51:18.359Z,6.78
2022-08-28T11:53:53.509Z,4.20
2022-08-28T11:56:52.355Z,4.47
2022-08-28T11:59:41.210Z,4.60
2022-08-28T12:02:45.991Z,4.25
2022-08-28T12:05:36.722Z,5.15
2022-08-28T12:08:17.622Z,4.63
2022-08-28T12:10:56.454Z,7.30
2022-08-28T12:13:47.278Z,4.93
2022-08-28T12:16:25.085Z,4.03
2022-08-28T12:18:54.806Z,4.35
2022-08-28T12:21:27.789Z,5.30
2022-08-28T12:24:16.503Z,5.32
2022-08-28T12:26:50.572Z,4.25
2022-08-28T12:29:33.381Z,4.57
2022-08-28T12:32:26.491Z,4.32
2022-08-28T12:35:03.251Z,4.82
2022-08-28T12:37:52.537Z,7.65
2022-08-28T12:40:27.263Z,8.30
2022-08-28T12:42:59.265Z,6.60
2022-08-28T12:45:58.014Z,4.82
2022-08-28T12:48:31.687Z,6.22
2022-08-28T12:51:08.121Z,4.15
2022-08-28T12:53:41.677Z,4.97
2022-08-28T12:58:47.221Z,5.35
2022-08-28T13:01:33.437Z,6.88
2022-08-28T13:04:05.012Z,6.68
2022-08-28T13:06:38.733Z,6.75
2022-08-28T13:09:16.189Z,7.25
2022-08-28T13:11:50.834Z,5.82
2022-08-28T13:14:37.679Z,6.25
2022-08-28T13:17:08.404Z,5.40
2022-08-28T13:19:42.664Z,5.25
2022-08-28T13:22:41.645Z,4.70
2022-08-28T13:25:25.724Z,5.63
2022-08-28T13:28:11.963Z,6.32
2022-08-28T13:30:40.630Z,7.22
2022-08-28T13:33:33.447Z,8.07
2022-08-28T13:36:21.133Z,6.70
2022-08-28T13:38:50.053Z,6.72
2022-08-28T13:41:19.973Z,4.80
2022-08-28T13:43:49.819Z,4.95
2022-08-28T13:46:21.276Z,13.52
2022-08-28T13:48:50.243Z,5.78
2022-08-28T13:51:21.450Z,5.40
2022-08-28T13:54:01.219Z,4.88
2022-08-28T13:56:31.585Z,5.18
2022-08-28T13:58:59.669Z,5.60
2022-08-28T14:01:48.095Z,5.65
2022-08-28T14:04:16.402Z,5.72
2022-08-28T14:06:45.310Z,8.02
2022-08-28T14:09:17.509Z,5.68
2022-08-28T14:11:47.228Z,5.75
2022-08-28T14:14:16.691Z,5.10
2022-08-28T14:16:46.826Z,5.32
2022-08-28T14:19:15.378Z,5.47
2022-08-28T14:21:43.938Z,4.57
2022-08-28T14:24:13.043Z,4.65
2022-08-28T14:26:43.381Z,5.45
2022-08-28T14:29:14.390Z,4.28
2022-08-28T14:31:45.757Z,4.55
2022-08-28T14:34:18.605Z,5.88
2022-08-28T14:36:55.922Z,4.50
2022-08-28T14:39:25.918Z,4.70
2022-08-28T14:41:58.447Z,4.03
2022-08-28T14:44:28.274Z,4.38
2022-08-28T14:46:57.467Z,4.50
2022-08-28T14:49:28.111Z,4.32
2022-08-28T14:52:02.837Z,4.15
2022-08-28T14:54:32.617Z,4.20
2022-08-28T14:57:01.017Z,4.65
2022-08-28T14:59:31.342Z,4.60
2022-08-28T15:02:03.965Z,4.40
2022-08-28T15:04:39.420Z,5.13
2022-08-28T15:07:11.348Z,4.78
2022-08-28T15:09:42.363Z,5.45
2022-08-28T15:12:12.705Z,5.38
2022-08-28T15:14:54.854Z,5.50
2022-08-28T15:17:34.203Z,5.50
2022-08-28T15:20:03.494Z,5.00
2022-08-28T15:22:33.589Z,5.68
2022-08-28T15:25:06.042Z,5.50
2022-08-28T15:27:59.116Z,7.63
2022-08-28T15:30:29.069Z,5.13
2022-08-28T15:33:00.011Z,4.88
2022-08-28T15:35:28.388Z,5.55
2022-08-28T15:37:58.590Z,4.88
2022-08-28T15:40:48.010Z,5.57
2022-08-28T15:43:16.722Z,5.60
2022-08-28T15:45:45.131Z,5.13
2022-08-28T15:48:16.621Z,5.40
2022-08-28T15:50:47.712Z,6.78
2022-08-28T15:53:18.157Z,7.97
2022-08-28T15:55:46.869Z,6.85
2022-08-28T15:58:15.645Z,7.00
2022-08-28T16:00:43.852Z,9.93
2022-08-28T16:03:13.395Z,6.70
2022-08-28T16:05:43.026Z,7.82
2022-08-28T16:08:19.232Z,12.20
2022-08-28T16:10:50.578Z,6.47
2022-08-28T16:13:21.003Z,8.13
2022-08-28T16:15:50.729Z,8.65
2022-08-28T16:18:20.421Z,7.97
2022-08-28T16:20:48.574Z,8.05
2022-08-28T16:23:18.521Z,6.97
2022-08-28T16:25:47.228Z,8.57
2022-08-28T16:28:17.091Z,11.00
2022-08-28T16:30:45.703Z,12.15
2022-08-28T16:33:16.590Z,11.32
2022-08-28T16:35:55.124Z,8.73
2022-08-28T16:38:28.896Z,8.93
2022-08-28T16:41:03.595Z,10.25
2022-08-28T16:43:32.888Z,9.63
2022-08-28T16:46:01.031Z,10.88
2022-08-28T16:48:29.916Z,8.43
2022-08-28T16:51:01.443Z,9.30
2022-08-28T16:53:32.321Z,9.32
2022-08-28T16:56:07.178Z,9.57
2022-08-28T16:58:44.257Z,11.52
2022-08-28T17:01:21.652Z,9.75
2022-08-28T17:03:54.589Z,10.45
2022-08-28T17:06:25.980Z,13.23
2022-08-28T17:08:57.073Z,10.18
2022-08-28T17:11:27.906Z,12.75
2022-08-28T17:13:57.506Z,12.30
2022-08-28T17:16:26.726Z,13.63
2022-08-28T17:18:55.804Z,12.98
2022-08-28T17:21:44.333Z,13.25
2022-08-28T17:24:14.323Z,20.08
2022-08-28T17:26:45.672Z,13.05
2022-08-28T17:29:16.448Z,15.85
2022-08-28T17:31:47.058Z,14.10
2022-08-28T17:34:16.648Z,16.02
2022-08-28T17:36:54.995Z,16.77
2022-08-28T17:39:25.453Z,12.52
2022-08-28T17:41:56.058Z,9.70
2022-08-28T17:44:24.244Z,10.38
2022-08-28T17:47:12.014Z,9.65
2022-08-28T17:49:42.355Z,11.48
2022-08-28T17:52:12.446Z,9.05
2022-08-28T17:54:40.745Z,10.60
2022-08-28T17:57:09.422Z,9.88
2022-08-28T17:59:37.716Z,10.82
2022-08-28T18:02:05.830Z,11.88
2022-08-28T18:04:36.148Z,9.45
2022-08-28T18:07:10.730Z,12.15
2022-08-28T18:09:39.111Z,10.90
2022-08-28T18:12:12.509Z,11.82
2022-08-28T18:14:41.672Z,9.07
2022-08-28T18:17:13.624Z,9.73
2022-08-28T18:19:47.329Z,9.63
2022-08-28T18:22:38.128Z,8.18
2022-08-28T18:25:36.644Z,8.00
2022-08-28T18:28:05.987Z,9.77
2022-08-28T18:30:40.215Z,8.10
2022-08-28T18:33:27.836Z,9.75
2022-08-28T18:35:59.559Z,9.25
2022-08-28T18:38:29.877Z,9.07
2022-08-28T18:41:00.035Z,9.82
2022-08-28T18:43:28.573Z,10.85
2022-08-28T18:46:05.343Z,9.35
2022-08-28T18:48:35.030Z,8.32
2022-08-28T18:51:08.515Z,8.75
2022-08-28T18:53:37.795Z,18.52
2022-08-28T18:56:12.828Z,44.17
2022-08-28T18:58:43.362Z,10.88
2022-08-28T19:01:11.693Z,9.20
2022-08-28T19:03:39.901Z,10.20
2022-08-28T19:06:16.526Z,9.15
2022-08-28T19:08:46.607Z,9.75
2022-08-28T19:11:16.447Z,9.50
2022-08-28T19:13:46.040Z,9.43
2022-08-28T19:16:20.909Z,9.63
2022-08-28T19:18:51.449Z,9.30
2022-08-28T19:21:22.300Z,10.75
2022-08-28T19:23:55.986Z,11.02
2022-08-28T19:26:26.830Z,10.82
2022-08-28T19:28:58.336Z,11.45
2022-08-28T19:31:34.156Z,12.10
2022-08-28T19:34:03.770Z,10.90
2022-08-28T19:36:32.340Z,11.95
2022-08-28T19:39:04.550Z,11.77
2022-08-28T19:41:36.795Z,12.65
2022-08-28T19:44:06.540Z,11.60
2022-08-28T19:46:36.929Z,12.98
2022-08-28T19:49:06.889Z,13.60
2022-08-28T19:51:37.523Z,15.13
2022-08-28T19:54:08.091Z,16.13
2022-08-28T19:56:38.784Z,14.75
2022-08-28T19:59:07.880Z,14.90
2022-08-28T20:01:42.597Z,16.90
2022-08-28T20:04:18.161Z,21.98
2022-08-28T20:07:10.505Z,20.65
2022-08-28T20:09:40.420Z,19.63
2022-08-28T20:12:08.652Z,16.75
2022-08-28T20:14:39.117Z,15.88
2022-08-28T20:17:07.924Z,17.08
2022-08-28T20:33:27.601Z,7.97
2022-08-28T20:36:06.117Z,5.93
2022-08-28T20:38:41.223Z,7.07
2022-08-28T20:41:13.680Z,6.63
2022-08-28T20:43:43.994Z,5.90
2022-08-28T20:46:14.381Z,4.90
2022-08-28T20:48:43.183Z,5.13
2022-08-28T20:51:11.865Z,6.43
2022-08-28T20:53:40.564Z,7.53
2022-08-28T20:56:10.321Z,8.00
2022-08-28T20:58:40.754Z,8.70
2022-08-28T21:01:15.167Z,9.30
2022-08-28T21:03:44.257Z,8.18
2022-08-28T21:06:12.811Z,8.63
2022-08-28T21:08:41.963Z,8.75
2022-08-28T21:11:11.191Z,8.95
2022-08-28T21:13:41.450Z,8.57
2022-08-28T21:16:11.673Z,8.50
2022-08-28T21:18:59.089Z,10.43
2022-08-28T21:21:28.987Z,10.43
2022-08-28T21:23:57.569Z,9.73
2022-08-28T21:26:26.672Z,9.57
2022-08-28T21:28:56.034Z,9.52
2022-08-28T21:31:25.593Z,12.27
2022-08-28T21:33:56.991Z,10.55
2022-08-28T21:36:25.276Z,9.73
2022-08-28T21:38:55.371Z,8.05
2022-08-28T21:41:49.579Z,7.43
2022-08-28T21:44:20.292Z,8.18
2022-08-28T21:46:50.778Z,7.65
2022-08-28T21:49:22.743Z,8.32
2022-08-28T21:51:51.070Z,7.68
2022-08-28T21:54:19.773Z,8.40
2022-08-28T21:56:48.841Z,6.60
2022-08-28T21:59:33.103Z,6.80
2022-08-28T22:02:07.516Z,6.63
2022-08-28T22:04:36.449Z,6.20
2022-08-28T22:07:04.569Z,6.25
2022-08-28T22:09:33.047Z,7.28
2022-08-28T22:12:01.427Z,7.28
2022-08-28T22:14:29.565Z,7.40
2022-08-28T22:16:57.935Z,6.28
2022-08-28T22:19:29.101Z,7.00
2022-08-28T22:22:17.172Z,7.00
2022-08-28T22:24:47.783Z,7.03
2022-08-28T22:27:18.695Z,6.80
2022-08-28T22:29:47.686Z,7.75
2022-08-28T22:32:15.771Z,8.68
2022-08-28T22:34:45.456Z,7.40
2022-08-28T22:37:17.187Z,8.43
2022-08-28T22:39:48.953Z,7.45
2022-08-28T22:42:17.952Z,7.90
2022-08-28T22:44:47.042Z,7.80
2022-08-28T22:47:15.311Z,7.18
2022-08-28T22:49:47.851Z,7.13
2022-08-28T22:52:23.744Z,7.43
2022-08-28T22:54:58.844Z,7.97
2022-08-28T22:57:39.623Z,7.90
2022-08-28T23:00:14.699Z,8.40
2022-08-28T23:02:44.081Z,7.63
2022-08-28T23:05:15.039Z,7.78
2022-08-28T23:07:44.428Z,7.63
2022-08-28T23:10:14.620Z,7.57
2022-08-28T23:12:44.469Z,7.70
2022-08-28T23:15:18.792Z,8.40
2022-08-28T23:17:47.420Z,7.32
2022-08-28T23:20:22.810Z,7.75
2022-08-28T23:22:58.255Z,6.93
2022-08-28T23:25:27.647Z,7.80
2022-08-28T23:27:57.550Z,7.78
2022-08-28T23:30:26.228Z,7.82
2022-08-28T23:32:56.525Z,9.20
2022-08-28T23:35:25.322Z,7.82
2022-08-28T23:37:54.613Z,8.60
2022-08-28T23:40:26.249Z,8.35
2022-08-28T23:42:58.151Z,10.30
2022-08-28T23:45:27.693Z,8.75
2022-08-28T23:47:57.508Z,8.23
2022-08-28T23:50:28.697Z,8.55
2022-08-28T23:52:57.587Z,7.97
2022-08-28T23:55:27.034Z,7.55
2022-08-28T23:57:56.992Z,7.97
